createdAt,value
2022-12-16T00:01:28.630Z,100.00
2022-12-16T00:04:17.574Z,100.00
2022-12-16T00:07:04.073Z,100.00
2022-12-16T00:09:50.720Z,100.00
2022-12-16T00:12:37.993Z,100.00
2022-12-16T00:15:24.121Z,100.00
2022-12-16T00:18:10.281Z,100.00
2022-12-16T00:20:56.735Z,100.00
2022-12-16T00:23:43.042Z,100.00
2022-12-16T00:26:31.143Z,100.00
2022-12-16T00:29:18.466Z,100.00
2022-12-16T00:32:05.006Z,100.00
2022-12-16T00:34:51.625Z,100.00
2022-12-16T00:37:38.064Z,100.00
2022-12-16T00:40:24.255Z,100.00
2022-12-16T00:43:10.994Z,100.00
2022-12-16T00:45:57.396Z,100.00
2022-12-16T00:48:44.078Z,100.00
2022-12-16T00:51:30.430Z,100.00
2022-12-16T00:54:16.548Z,100.00
2022-12-16T00:57:03.062Z,100.00
2022-12-16T00:59:49.269Z,100.00
2022-12-16T01:02:35.817Z,100.00
2022-12-16T01:05:26.843Z,100.00
2022-12-16T01:08:13.200Z,100.00
2022-12-16T01:11:00.031Z,100.00
2022-12-16T01:13:46.954Z,100.00
2022-12-16T01:16:35.095Z,100.00
2022-12-16T01:19:21.445Z,100.00
2022-12-16T01:22:07.656Z,100.00
2022-12-16T01:24:54.907Z,100.00
2022-12-16T01:27:41.716Z,100.00
2022-12-16T01:30:27.998Z,100.00
2022-12-16T01:33:14.170Z,100.00
2022-12-16T01:36:02.286Z,100.00
2022-12-16T01:38:48.981Z,100.00
2022-12-16T01:41:35.190Z,100.00
2022-12-16T01:44:24.253Z,100.00
2022-12-16T01:47:20.741Z,100.00
2022-12-16T01:50:14.785Z,100.00
2022-12-16T01:53:04.665Z,100.00
2022-12-16T01:55:53.329Z,100.00
2022-12-16T01:58:41.646Z,100.00
2022-12-16T02:01:28.424Z,100.00
2022-12-16T02:04:14.784Z,100.00
2022-12-16T02:07:01.534Z,100.00
2022-12-16T02:09:48.249Z,100.00
2022-12-16T02:12:46.465Z,100.00
2022-12-16T02:15:54.243Z,100.00
2022-12-16T02:18:51.779Z,100.00
2022-12-16T02:21:56.676Z,100.00
2022-12-16T02:25:01.305Z,100.00
2022-12-16T02:28:11.330Z,100.00
2022-12-16T02:31:00.578Z,100.00
2022-12-16T02:34:13.328Z,100.00
2022-12-16T02:37:23.620Z,100.00
2022-12-16T02:40:36.122Z,100.00
2022-12-16T02:43:48.620Z,100.00
2022-12-16T02:46:40.766Z,100.00
2022-12-16T02:49:26.952Z,100.00
2022-12-16T02:52:14.216Z,100.00
2022-12-16T02:55:09.076Z,100.00
2022-12-16T02:58:07.487Z,100.00
2022-12-16T03:01:13.571Z,100.00
2022-12-16T03:04:27.673Z,100.00
2022-12-16T03:07:17.284Z,100.00
2022-12-16T03:10:10.645Z,100.00
2022-12-16T03:12:59.681Z,100.00
2022-12-16T03:15:48.394Z,100.00
2022-12-16T03:18:36.555Z,100.00
2022-12-16T03:21:27.572Z,100.00
2022-12-16T03:24:14.739Z,100.00
2022-12-16T03:27:12.775Z,100.00
2022-12-16T03:30:06.650Z,100.00
2022-12-16T03:32:58.339Z,100.00
2022-12-16T03:35:54.439Z,100.00
2022-12-16T03:38:42.504Z,100.00
2022-12-16T03:41:31.335Z,100.00
2022-12-16T03:44:18.483Z,100.00
2022-12-16T03:47:05.837Z,100.00
2022-12-16T03:49:52.431Z,100.00
2022-12-16T03:52:38.676Z,100.00
2022-12-16T03:55:25.013Z,100.00
2022-12-16T03:58:11.182Z,100.00
2022-12-16T04:00:57.604Z,100.00
2022-12-16T04:03:44.026Z,100.00
2022-12-16T04:06:30.632Z,100.00
2022-12-16T04:09:16.761Z,100.00
2022-12-16T04:12:21.962Z,100.00
2022-12-16T04:15:27.273Z,100.00
2022-12-16T04:18:34.927Z,100.00
2022-12-16T04:21:39.725Z,100.00
2022-12-16T04:24:28.955Z,100.00
2022-12-16T04:27:27.907Z,100.00
2022-12-16T04:30:21.991Z,100.00
2022-12-16T04:33:30.838Z,100.00
2022-12-16T04:36:36.207Z,100.00
2022-12-16T04:40:00.832Z,100.00
2022-12-16T04:43:05.958Z,100.00
2022-12-16T04:46:11.175Z,100.00
2022-12-16T04:49:16.207Z,100.00
2022-12-16T04:52:21.119Z,100.00
2022-12-16T04:55:26.914Z,100.00
2022-12-16T04:58:33.258Z,100.00
2022-12-16T05:01:38.013Z,100.00
2022-12-16T05:04:43.335Z,100.00
2022-12-16T05:07:48.364Z,100.00
2022-12-16T05:10:53.394Z,100.00
2022-12-16T05:13:58.349Z,100.00
2022-12-16T05:17:03.209Z,100.00
2022-12-16T05:20:08.358Z,100.00
2022-12-16T05:23:15.267Z,100.00
2022-12-16T05:26:19.946Z,100.00
2022-12-16T05:29:24.809Z,100.00
2022-12-16T05:32:29.542Z,100.00
2022-12-16T05:35:34.323Z,100.00
2022-12-16T05:38:39.154Z,100.00
2022-12-16T05:41:44.001Z,100.00
2022-12-16T05:44:48.890Z,100.00
2022-12-16T05:47:53.711Z,100.00
2022-12-16T05:50:58.484Z,100.00
2022-12-16T05:54:03.494Z,100.00
2022-12-16T05:57:08.634Z,100.00
2022-12-16T06:00:13.764Z,100.00
2022-12-16T06:03:18.680Z,100.00
2022-12-16T06:06:23.783Z,100.00
2022-12-16T06:09:28.637Z,100.00
2022-12-16T06:12:33.665Z,100.00
2022-12-16T06:15:38.869Z,100.00
2022-12-16T06:18:43.581Z,100.00
2022-12-16T06:21:48.806Z,100.00
2022-12-16T06:24:53.579Z,100.00
2022-12-16T06:27:58.338Z,100.00
2022-12-16T06:31:03.319Z,100.00
2022-12-16T06:34:08.198Z,100.00
2022-12-16T06:37:13.065Z,100.00
2022-12-16T06:40:18.029Z,100.00
2022-12-16T06:43:22.992Z,100.00
2022-12-16T06:46:29.059Z,100.00
2022-12-16T06:49:34.156Z,100.00
2022-12-16T06:52:39.345Z,100.00
2022-12-16T06:55:44.192Z,100.00
2022-12-16T06:58:49.274Z,100.00
2022-12-16T07:01:54.237Z,100.00
2022-12-16T07:04:59.299Z,100.00
2022-12-16T07:08:08.908Z,100.00
2022-12-16T07:11:17.096Z,100.00
2022-12-16T07:14:22.344Z,100.00
2022-12-16T07:17:27.592Z,100.00
2022-12-16T07:20:32.436Z,100.00
2022-12-16T07:23:37.356Z,100.00
2022-12-16T07:26:41.972Z,100.00
2022-12-16T07:29:46.766Z,100.00
2022-12-16T07:32:51.725Z,100.00
2022-12-16T07:35:56.639Z,100.00
2022-12-16T07:39:01.950Z,100.00
2022-12-16T07:42:07.126Z,100.00
2022-12-16T07:45:12.064Z,100.00
2022-12-16T07:48:17.141Z,100.00
2022-12-16T07:51:22.486Z,100.00
2022-12-16T07:54:27.471Z,100.00
2022-12-16T07:57:32.501Z,100.00
2022-12-16T08:00:37.275Z,100.00
2022-12-16T08:03:42.117Z,100.00
2022-12-16T08:06:47.466Z,100.00
2022-12-16T08:09:52.445Z,100.00
2022-12-16T08:12:57.425Z,100.00
2022-12-16T08:16:02.307Z,100.00
2022-12-16T08:19:11.032Z,100.00
2022-12-16T08:22:16.507Z,100.00
2022-12-16T08:25:21.312Z,100.00
2022-12-16T08:28:26.219Z,100.00
2022-12-16T08:31:30.965Z,100.00
2022-12-16T08:34:36.269Z,100.00
2022-12-16T08:37:41.147Z,100.00
2022-12-16T08:40:46.025Z,100.00
2022-12-16T08:43:52.866Z,100.00
2022-12-16T08:46:58.012Z,100.00
2022-12-16T08:50:03.107Z,100.00
2022-12-16T08:53:08.149Z,100.00
2022-12-16T08:56:13.154Z,100.00
2022-12-16T08:59:18.115Z,100.00
2022-12-16T09:02:39.973Z,100.00
2022-12-16T09:05:45.330Z,100.00
2022-12-16T09:08:50.758Z,100.00
2022-12-16T09:11:55.972Z,100.00
2022-12-16T09:15:01.040Z,100.00
2022-12-16T09:18:13.897Z,100.00
2022-12-16T09:21:18.838Z,100.00
2022-12-16T09:24:24.120Z,100.00
2022-12-16T09:27:29.003Z,100.00
2022-12-16T09:30:34.086Z,100.00
2022-12-16T09:33:38.665Z,100.00
2022-12-16T09:36:43.507Z,100.00
2022-12-16T09:39:48.277Z,100.00
2022-12-16T09:43:12.041Z,100.00
2022-12-16T09:46:29.340Z,100.00
2022-12-16T09:49:40.574Z,100.00
2022-12-16T09:52:46.930Z,100.00
2022-12-16T09:55:58.299Z,98.59
2022-12-16T09:59:30.319Z,98.94
2022-12-16T10:02:38.038Z,98.71
2022-12-16T10:05:53.034Z,95.19
2022-12-16T10:09:13.367Z,95.83
2022-12-16T10:12:53.856Z,96.03
2022-12-16T10:16:30.566Z,94.50
2022-12-16T10:19:54.163Z,94.05
2022-12-16T10:23:18.282Z,92.31
2022-12-16T10:26:38.410Z,92.81
2022-12-16T10:29:48.287Z,91.78
2022-12-16T10:33:06.141Z,92.62
2022-12-16T10:36:13.074Z,93.74
2022-12-16T10:39:25.503Z,93.47
2022-12-16T10:42:52.385Z,92.74
2022-12-16T10:46:04.285Z,92.53
2022-12-16T10:49:10.601Z,93.45
2022-12-16T10:52:15.492Z,93.22
2022-12-16T10:55:52.936Z,91.50
2022-12-16T10:59:00.688Z,91.89
2022-12-16T11:02:38.774Z,91.80
2022-12-16T11:05:46.711Z,91.76
2022-12-16T11:08:55.486Z,89.90
2022-12-16T11:12:00.607Z,91.16
2022-12-16T11:15:29.218Z,89.57
2022-12-16T11:18:40.079Z,90.71
2022-12-16T11:21:45.069Z,89.83
2022-12-16T11:24:50.774Z,89.97
2022-12-16T11:27:55.698Z,90.40
2022-12-16T11:31:01.114Z,94.04
2022-12-16T11:34:07.715Z,93.12
2022-12-16T11:37:15.560Z,92.20
2022-12-16T11:40:24.162Z,90.22
2022-12-16T11:43:32.351Z,90.18
2022-12-16T11:46:46.491Z,90.61
2022-12-16T11:49:52.183Z,91.21
2022-12-16T11:52:58.010Z,92.05
2022-12-16T11:56:14.013Z,92.57
2022-12-16T11:59:24.605Z,93.24
2022-12-16T12:02:42.611Z,93.68
2022-12-16T12:05:56.810Z,93.07
2022-12-16T12:09:23.880Z,92.42
2022-12-16T12:12:47.662Z,91.86
2022-12-16T12:16:16.598Z,89.42
2022-12-16T12:19:32.235Z,90.24
2022-12-16T12:22:57.743Z,87.32
2022-12-16T12:26:26.291Z,84.67
2022-12-16T12:29:38.823Z,85.31
2022-12-16T12:33:04.546Z,85.97
2022-12-16T12:36:23.493Z,85.44
2022-12-16T12:39:34.729Z,87.05
2022-12-16T12:42:49.704Z,84.00
2022-12-16T12:46:22.648Z,84.93
2022-12-16T12:49:44.065Z,84.25
2022-12-16T12:53:19.567Z,81.96
2022-12-16T12:56:40.798Z,80.78
2022-12-16T13:00:02.907Z,79.11
2022-12-16T13:03:33.348Z,78.12
2022-12-16T13:06:39.922Z,81.01
2022-12-16T13:09:51.932Z,80.71
2022-12-16T13:12:57.263Z,80.76
2022-12-16T13:16:02.018Z,82.07
2022-12-16T13:19:09.806Z,82.01
2022-12-16T13:22:14.821Z,82.83
2022-12-16T13:25:23.967Z,83.03
2022-12-16T13:28:59.142Z,82.81
2022-12-16T13:32:19.880Z,84.08
2022-12-16T13:35:28.057Z,81.28
2022-12-16T13:38:38.727Z,85.02
2022-12-16T13:41:43.370Z,85.45
2022-12-16T13:45:31.267Z,85.21
2022-12-16T13:48:51.574Z,85.26
2022-12-16T13:51:56.211Z,87.04
2022-12-16T13:55:18.877Z,87.06
2022-12-16T13:58:40.300Z,87.14
2022-12-16T14:02:06.698Z,87.38
2022-12-16T14:05:12.320Z,89.00
2022-12-16T14:08:17.766Z,88.94
2022-12-16T14:11:25.599Z,88.33
2022-12-16T14:14:50.001Z,89.40
2022-12-16T14:18:11.236Z,90.23
2022-12-16T14:21:20.537Z,90.41
2022-12-16T14:24:36.853Z,91.06
2022-12-16T14:27:43.014Z,91.11
2022-12-16T14:30:48.973Z,91.19
2022-12-16T14:33:53.959Z,92.72
2022-12-16T14:36:59.334Z,92.42
2022-12-16T14:40:07.515Z,92.98
2022-12-16T14:43:13.304Z,92.95
2022-12-16T14:46:18.554Z,93.55
2022-12-16T14:52:46.009Z,94.30
2022-12-16T14:56:01.154Z,94.16
2022-12-16T14:59:24.612Z,94.36
2022-12-16T15:02:46.224Z,96.14
2022-12-16T15:05:53.921Z,97.38
2022-12-16T15:09:13.235Z,98.30
2022-12-16T15:12:18.271Z,97.38
2022-12-16T15:15:46.735Z,99.28
2022-12-16T15:18:57.098Z,99.33
2022-12-16T15:22:02.476Z,100.00
2022-12-16T15:25:07.479Z,100.00
2022-12-16T15:28:14.075Z,100.00
2022-12-16T15:31:18.842Z,100.00
2022-12-16T15:35:06.585Z,100.00
2022-12-16T15:38:28.750Z,100.00
2022-12-16T15:41:49.802Z,100.00
2022-12-16T15:44:55.073Z,100.00
2022-12-16T15:48:00.176Z,100.00
2022-12-16T15:51:11.404Z,100.00
2022-12-16T15:54:22.918Z,100.00
2022-12-16T15:57:50.998Z,100.00
2022-12-16T16:01:12.532Z,100.00
2022-12-16T16:04:18.313Z,100.00
2022-12-16T16:07:35.263Z,100.00
2022-12-16T16:10:43.508Z,100.00
2022-12-16T16:13:48.411Z,100.00
2022-12-16T16:16:53.472Z,100.00
2022-12-16T16:20:03.216Z,100.00
2022-12-16T16:23:08.688Z,100.00
2022-12-16T16:26:14.294Z,100.00
2022-12-16T16:29:27.288Z,100.00
2022-12-16T16:32:31.992Z,100.00
2022-12-16T16:35:37.150Z,100.00
2022-12-16T16:38:41.976Z,100.00
2022-12-16T16:41:46.978Z,100.00
2022-12-16T16:44:51.927Z,100.00
2022-12-16T16:47:57.086Z,100.00
2022-12-16T16:51:01.985Z,100.00
2022-12-16T16:54:07.698Z,100.00
2022-12-16T16:57:12.409Z,100.00
2022-12-16T17:00:17.208Z,100.00
2022-12-16T17:03:22.590Z,100.00
2022-12-16T17:06:27.599Z,100.00
2022-12-16T17:09:32.630Z,100.00
2022-12-16T17:12:42.791Z,100.00
2022-12-16T17:15:55.249Z,100.00
2022-12-16T17:19:00.147Z,100.00
2022-12-16T17:22:04.980Z,100.00
2022-12-16T17:25:09.897Z,100.00
2022-12-16T17:28:14.947Z,100.00
2022-12-16T17:31:19.903Z,100.00
2022-12-16T17:34:25.413Z,100.00
2022-12-16T17:37:30.329Z,100.00
2022-12-16T17:40:49.626Z,100.00
2022-12-16T17:43:54.268Z,100.00
2022-12-16T17:46:59.236Z,100.00
2022-12-16T17:50:04.372Z,100.00
2022-12-16T17:53:17.026Z,100.00
2022-12-16T17:56:23.718Z,100.00
2022-12-16T17:59:28.430Z,100.00
2022-12-16T18:02:33.611Z,100.00
2022-12-16T18:05:44.234Z,100.00
2022-12-16T18:08:51.096Z,100.00
2022-12-16T18:11:55.937Z,100.00
2022-12-16T18:15:00.750Z,100.00
2022-12-16T18:18:09.056Z,100.00
2022-12-16T18:21:13.826Z,100.00
2022-12-16T18:24:18.774Z,100.00
2022-12-16T18:27:23.963Z,100.00
2022-12-16T18:30:29.484Z,100.00
2022-12-16T18:33:34.886Z,100.00
2022-12-16T18:36:39.975Z,100.00
2022-12-16T18:39:45.148Z,100.00
2022-12-16T18:42:50.085Z,100.00
2022-12-16T18:45:57.107Z,100.00
2022-12-16T18:49:02.356Z,100.00
2022-12-16T18:52:07.533Z,100.00
2022-12-16T18:55:15.483Z,100.00
2022-12-16T18:58:50.929Z,100.00
2022-12-16T19:01:57.583Z,100.00
2022-12-16T19:05:02.758Z,100.00
2022-12-16T19:08:11.200Z,100.00
2022-12-16T19:11:29.990Z,100.00
2022-12-16T19:14:54.640Z,100.00
2022-12-16T19:17:59.807Z,100.00
2022-12-16T19:21:14.383Z,100.00
2022-12-16T19:24:19.365Z,100.00
2022-12-16T19:27:24.328Z,100.00
2022-12-16T19:30:29.318Z,100.00
2022-12-16T19:33:35.907Z,100.00
2022-12-16T19:36:45.321Z,100.00
2022-12-16T19:39:51.843Z,100.00
2022-12-16T19:42:57.087Z,100.00
2022-12-16T19:46:02.242Z,100.00
2022-12-16T19:49:06.970Z,100.00
2022-12-16T19:52:11.684Z,100.00
2022-12-16T19:55:17.775Z,100.00
2022-12-16T19:58:22.855Z,100.00
2022-12-16T20:01:28.481Z,100.00
2022-12-16T20:04:33.501Z,100.00
2022-12-16T20:07:38.245Z,100.00
2022-12-16T20:10:43.197Z,100.00
2022-12-16T20:13:48.470Z,100.00
2022-12-16T20:16:53.364Z,100.00
2022-12-16T20:19:58.485Z,100.00
2022-12-16T20:23:03.442Z,100.00
2022-12-16T20:26:16.801Z,100.00
2022-12-16T20:29:21.879Z,100.00
2022-12-16T20:32:26.790Z,100.00
2022-12-16T20:35:39.245Z,100.00
2022-12-16T20:38:43.950Z,100.00
2022-12-16T20:41:49.234Z,100.00
2022-12-16T20:44:54.104Z,100.00
2022-12-16T20:48:01.292Z,100.00
2022-12-16T20:54:42.126Z,100.00
2022-12-16T20:57:47.062Z,100.00
2022-12-16T21:00:51.651Z,100.00
2022-12-16T21:03:56.979Z,100.00
2022-12-16T21:07:01.984Z,100.00
2022-12-16T21:10:06.914Z,100.00
2022-12-16T21:13:12.175Z,100.00
2022-12-16T21:16:18.732Z,100.00
2022-12-16T21:19:27.924Z,100.00
2022-12-16T21:22:36.178Z,100.00
2022-12-16T21:25:40.999Z,100.00
2022-12-16T21:28:46.149Z,100.00
2022-12-16T21:31:51.103Z,100.00
2022-12-16T21:34:58.448Z,100.00
2022-12-16T21:38:03.214Z,100.00
2022-12-16T21:41:12.122Z,100.00
2022-12-16T21:44:17.247Z,100.00
2022-12-16T21:47:22.472Z,100.00
2022-12-16T21:50:28.211Z,100.00
2022-12-16T21:53:37.174Z,100.00
2022-12-16T21:56:42.447Z,100.00
2022-12-16T21:59:47.450Z,100.00
2022-12-16T22:02:55.402Z,100.00
2022-12-16T22:06:01.251Z,100.00
2022-12-16T22:09:06.240Z,100.00
2022-12-16T22:12:11.479Z,100.00
2022-12-16T22:15:16.729Z,100.00
2022-12-16T22:18:22.146Z,100.00
2022-12-16T22:21:28.201Z,100.00
2022-12-16T22:24:33.311Z,100.00
2022-12-16T22:27:38.497Z,100.00
2022-12-16T22:30:43.503Z,100.00
2022-12-16T22:33:48.951Z,100.00
2022-12-16T22:36:56.677Z,100.00
2022-12-16T22:40:01.530Z,100.00
2022-12-16T22:43:07.379Z,100.00
2022-12-16T22:46:20.888Z,100.00
2022-12-16T22:49:26.217Z,100.00
2022-12-16T22:52:32.386Z,100.00
2022-12-16T22:55:37.817Z,100.00
2022-12-16T22:58:42.609Z,100.00
2022-12-16T23:01:47.471Z,100.00
2022-12-16T23:04:52.828Z,100.00
2022-12-16T23:07:59.295Z,100.00
2022-12-16T23:11:14.764Z,100.00
2022-12-16T23:14:20.672Z,100.00
2022-12-16T23:17:25.846Z,100.00
2022-12-16T23:20:33.266Z,100.00
2022-12-16T23:23:39.993Z,100.00
2022-12-16T23:26:45.107Z,100.00
2022-12-16T23:29:51.563Z,100.00
2022-12-16T23:32:57.246Z,100.00
2022-12-16T23:36:02.436Z,100.00
2022-12-16T23:39:07.694Z,100.00
2022-12-16T23:42:12.669Z,100.00
2022-12-16T23:45:18.169Z,100.00
2022-12-16T23:48:25.625Z,100.00
2022-12-16T23:51:30.391Z,100.00
2022-12-16T23:54:37.507Z,100.00
2022-12-16T23:57:56.370Z,100.00
